Time;durP1;ratioP1;P1;durP2;ratioP2;P2;SDS_P1;SDS_P2;PMS_P1;PMS_P2;Temp;Humidity;BMP_temperature;BMP_pressure;BME280_temperature;BME280_humidity;BME280_pressure;Samples;Min_cycle;Max_cycle;Signal;HPM_P1;HPM_P2
2022/08/14 00:02:14;;;;;;;9.85;6.60;;;;;;;;;;5050777;28;20229;-15
2022/08/14 00:04:42;;;;;;;7.20;6.28;;;;;;;;;;5052044;28;20333;-15
2022/08/14 00:07:11;;;;;;;10.15;6.90;;;;;;;;;;5052333;28;20242;-14
2022/08/14 00:09:40;;;;;;;7.28;6.57;;;;;;;;;;5052071;28;20440;-15
2022/08/14 00:12:28;;;;;;;9.90;6.40;;;;;;;;;;5051739;28;20233;-15
2022/08/14 00:15:04;;;;;;;7.43;6.72;;;;;;;;;;5051865;28;20284;-15
2022/08/14 00:17:33;;;;;;;7.22;6.40;;;;;;;;;;5051623;28;20712;-15
2022/08/14 00:20:13;;;;;;;7.70;6.82;;;;;;;;;;5052303;28;21061;-15
2022/08/14 00:22:50;;;;;;;7.75;6.95;;;;;;;;;;5050665;28;20238;-15
2022/08/14 00:25:24;;;;;;;9.13;6.80;;;;;;;;;;5051925;28;20728;-15
2022/08/14 00:28:08;;;;;;;8.68;6.95;;;;;;;;;;5054909;28;21030;-15
2022/08/14 00:30:35;;;;;;;9.00;7.22;;;;;;;;;;5050999;28;20268;-15
2022/08/14 00:33:10;;;;;;;8.38;6.85;;;;;;;;;;5050869;28;20325;-14
2022/08/14 00:35:43;;;;;;;11.23;7.63;;;;;;;;;;5038987;28;20234;-15
2022/08/14 00:38:30;;;;;;;7.22;6.53;;;;;;;;;;5051230;28;20249;-15
2022/08/14 00:41:01;;;;;;;9.52;6.97;;;;;;;;;;5051614;28;20690;-15
2022/08/14 00:43:29;;;;;;;8.55;7.65;;;;;;;;;;5060635;28;20233;-14
2022/08/14 00:46:00;;;;;;;11.93;7.63;;;;;;;;;;5050858;28;20296;-15
2022/08/14 00:48:33;;;;;;;7.70;6.80;;;;;;;;;;5051563;28;20326;-15
2022/08/14 00:51:04;;;;;;;8.60;6.72;;;;;;;;;;5058981;28;20237;-15
2022/08/14 00:53:32;;;;;;;13.50;7.60;;;;;;;;;;5050713;28;20237;-15
2022/08/14 00:55:59;;;;;;;10.50;6.93;;;;;;;;;;5057554;28;20230;-15
2022/08/14 00:58:33;;;;;;;7.80;7.00;;;;;;;;;;5062893;28;20324;-15
2022/08/14 01:01:01;;;;;;;8.25;7.28;;;;;;;;;;5057084;28;20929;-15
2022/08/14 01:03:29;;;;;;;7.72;6.93;;;;;;;;;;5054357;28;20324;-15
2022/08/14 01:05:58;;;;;;;9.80;7.55;;;;;;;;;;5051252;28;20280;-15
2022/08/14 01:08:27;;;;;;;8.65;7.35;;;;;;;;;;5059829;28;20261;-14
2022/08/14 01:11:14;;;;;;;10.40;7.10;;;;;;;;;;5066536;28;20233;-14
2022/08/14 01:13:45;;;;;;;12.25;7.80;;;;;;;;;;5053807;28;21035;-14
2022/08/14 01:16:27;;;;;;;7.88;7.10;;;;;;;;;;5050560;28;20261;-15
2022/08/14 01:21:40;;;;;;;10.77;7.32;;;;;;;;;;5009660;28;20242;-15
2022/08/14 01:24:14;;;;;;;10.18;7.40;;;;;;;;;;5050749;28;20229;-15
2022/08/14 01:26:58;;;;;;;8.07;7.28;;;;;;;;;;5049950;28;20632;-14
2022/08/14 01:29:26;;;;;;;10.15;7.30;;;;;;;;;;5049849;28;20249;-14
2022/08/14 01:32:14;;;;;;;8.60;7.20;;;;;;;;;;5056961;28;20226;-15
2022/08/14 01:34:49;;;;;;;8.43;7.13;;;;;;;;;;5044660;28;20329;-15
2022/08/14 01:37:38;;;;;;;8.20;7.40;;;;;;;;;;5043914;28;20249;-15
2022/08/14 01:40:11;;;;;;;8.18;7.47;;;;;;;;;;5049951;28;20234;-15
2022/08/14 01:42:41;;;;;;;9.57;7.57;;;;;;;;;;5049934;28;20976;-15
2022/08/14 01:45:12;;;;;;;12.70;8.00;;;;;;;;;;5050016;28;20233;-15
2022/08/14 01:47:51;;;;;;;8.32;7.43;;;;;;;;;;5037087;28;20233;-15
2022/08/14 01:50:30;;;;;;;7.88;7.18;;;;;;;;;;5049996;28;20229;-15
2022/08/14 01:53:01;;;;;;;8.93;7.43;;;;;;;;;;5050695;28;20701;-15
2022/08/14 01:55:30;;;;;;;7.78;7.00;;;;;;;;;;5050552;28;20230;-15
2022/08/14 01:57:59;;;;;;;9.68;7.45;;;;;;;;;;5050493;28;20285;-14
2022/08/14 02:00:46;;;;;;;8.43;7.45;;;;;;;;;;5049657;28;20249;-15
2022/08/14 02:03:14;;;;;;;10.70;7.28;;;;;;;;;;5050446;28;20300;-15
2022/08/14 02:05:42;;;;;;;9.05;8.15;;;;;;;;;;5050377;28;20693;-15
2022/08/14 02:08:11;;;;;;;8.05;7.28;;;;;;;;;;5050362;28;20226;-15
2022/08/14 02:10:42;;;;;;;7.78;7.07;;;;;;;;;;5049665;28;20230;-15
2022/08/14 02:13:13;;;;;;;8.75;7.90;;;;;;;;;;5049789;28;20322;-15
2022/08/14 02:15:42;;;;;;;8.43;7.53;;;;;;;;;;5050311;28;20222;-15
2022/08/14 02:18:10;;;;;;;9.85;8.38;;;;;;;;;;5050234;28;20238;-15
2022/08/14 02:23:23;;;;;;;11.30;8.32;;;;;;;;;;4998529;28;21413;-16
2022/08/14 02:26:00;;;;;;;9.82;7.70;;;;;;;;;;5000195;28;20235;-16
2022/08/14 02:28:48;;;;;;;8.73;7.88;;;;;;;;;;5010227;28;20282;-16
2022/08/14 02:31:24;;;;;;;8.60;7.32;;;;;;;;;;5010467;28;20223;-16
2022/08/14 02:34:10;;;;;;;8.73;7.38;;;;;;;;;;5009930;28;20687;-16
2022/08/14 02:36:52;;;;;;;9.15;8.07;;;;;;;;;;5010049;28;20232;-16
2022/08/14 02:39:34;;;;;;;9.43;7.85;;;;;;;;;;5010431;28;20334;-16
2022/08/14 02:42:04;;;;;;;9.18;8.00;;;;;;;;;;5010118;28;20314;-16
2022/08/14 02:44:31;;;;;;;9.15;8.05;;;;;;;;;;5009576;28;20229;-16
2022/08/14 02:47:07;;;;;;;9.80;8.65;;;;;;;;;;5010635;28;20242;-17
2022/08/14 02:49:41;;;;;;;9.82;8.10;;;;;;;;;;5010191;28;20231;-17
2022/08/14 02:52:09;;;;;;;8.60;7.70;;;;;;;;;;5010223;28;20232;-17
2022/08/14 02:54:58;;;;;;;9.65;8.25;;;;;;;;;;4999887;28;20235;-17
2022/08/14 02:57:26;;;;;;;10.20;8.00;;;;;;;;;;5009883;28;20238;-17
2022/08/14 03:00:07;;;;;;;9.13;8.07;;;;;;;;;;5013578;28;20235;-16
2022/08/14 03:02:36;;;;;;;8.98;7.95;;;;;;;;;;5012711;28;21093;-16
2022/08/14 03:05:23;;;;;;;9.35;8.45;;;;;;;;;;5013111;28;21038;-16
2022/08/14 03:07:52;;;;;;;9.48;8.57;;;;;;;;;;5012905;28;20251;-16
2022/08/14 03:10:23;;;;;;;10.00;8.52;;;;;;;;;;5013421;28;20259;-16
2022/08/14 03:12:53;;;;;;;9.23;8.30;;;;;;;;;;5013040;28;20238;-16
2022/08/14 03:15:20;;;;;;;14.15;9.07;;;;;;;;;;5012936;28;20270;-16
2022/08/14 03:17:51;;;;;;;10.70;7.85;;;;;;;;;;5012743;28;20231;-16
2022/08/14 03:20:24;;;;;;;10.63;8.07;;;;;;;;;;4999417;28;20239;-16
2022/08/14 03:22:52;;;;;;;10.98;8.38;;;;;;;;;;5012916;28;20250;-16
2022/08/14 03:25:20;;;;;;;10.15;8.82;;;;;;;;;;5012998;28;20227;-16
2022/08/14 03:27:50;;;;;;;8.93;8.10;;;;;;;;;;5012548;28;20239;-16
2022/08/14 03:30:25;;;;;;;10.63;8.18;;;;;;;;;;5012440;28;20250;-16
2022/08/14 03:33:07;;;;;;;11.05;8.52;;;;;;;;;;5013159;28;20740;-16
2022/08/14 03:35:36;;;;;;;10.75;8.80;;;;;;;;;;5012584;28;20326;-16
2022/08/14 03:38:24;;;;;;;10.82;9.13;;;;;;;;;;5012791;28;20227;-15
2022/08/14 03:41:13;;;;;;;9.95;8.48;;;;;;;;;;5012589;28;20235;-16
2022/08/14 03:43:42;;;;;;;9.52;8.63;;;;;;;;;;5013020;28;20238;-16
2022/08/14 03:46:10;;;;;;;10.90;8.85;;;;;;;;;;5012678;28;20224;-16
2022/08/14 03:48:59;;;;;;;9.52;8.38;;;;;;;;;;5012520;28;20240;-16
2022/08/14 03:51:29;;;;;;;10.00;8.93;;;;;;;;;;5012597;28;20248;-16
2022/08/14 03:53:57;;;;;;;8.75;7.95;;;;;;;;;;5011746;28;20231;-16
2022/08/14 03:56:24;;;;;;;9.80;8.90;;;;;;;;;;5012486;28;20239;-16
2022/08/14 03:58:54;;;;;;;11.20;8.38;;;;;;;;;;5012724;28;20270;-16
2022/08/14 04:01:24;;;;;;;9.95;8.68;;;;;;;;;;5002754;28;20285;-15
2022/08/14 04:03:56;;;;;;;10.10;9.20;;;;;;;;;;5012504;28;20244;-16
2022/08/14 04:06:24;;;;;;;8.80;7.97;;;;;;;;;;5012071;28;20753;-16
2022/08/14 04:08:58;;;;;;;9.63;8.73;;;;;;;;;;5012496;28;20673;-16
2022/08/14 04:11:25;;;;;;;10.20;9.15;;;;;;;;;;5011783;28;20243;-16
2022/08/14 04:13:54;;;;;;;10.77;8.98;;;;;;;;;;5012275;28;20224;-16
2022/08/14 04:16:22;;;;;;;9.93;8.95;;;;;;;;;;5012213;28;20257;-16
2022/08/14 04:18:50;;;;;;;10.23;9.32;;;;;;;;;;5011511;28;20228;-16
2022/08/14 04:21:17;;;;;;;17.00;9.10;;;;;;;;;;5011288;28;20251;-16
2022/08/14 04:23:46;;;;;;;14.40;8.85;;;;;;;;;;5011347;28;20263;-16
2022/08/14 04:26:24;;;;;;;10.55;9.50;;;;;;;;;;5012029;28;20235;-16
2022/08/14 04:28:55;;;;;;;10.82;9.00;;;;;;;;;;5012757;28;20774;-16
2022/08/14 04:31:41;;;;;;;12.02;9.15;;;;;;;;;;5011819;28;20732;-16
2022/08/14 04:34:28;;;;;;;12.20;9.18;;;;;;;;;;5011897;28;20396;-16
2022/08/14 04:45:23;;;;;;;11.15;9.55;;;;;;;;;;5003375;28;20236;-16
2022/08/14 04:50:36;;;;;;;10.52;9.45;;;;;;;;;;5011612;28;21065;-16
2022/08/14 04:53:12;;;;;;;11.48;8.95;;;;;;;;;;5011825;28;20230;-16
2022/08/14 04:55:40;;;;;;;9.88;8.93;;;;;;;;;;5010696;28;20232;-16
2022/08/14 04:58:08;;;;;;;10.77;9.52;;;;;;;;;;5011429;28;20240;-16
2022/08/14 05:00:50;;;;;;;11.18;9.43;;;;;;;;;;5011263;28;21011;-16
2022/08/14 05:03:19;;;;;;;10.30;9.27;;;;;;;;;;5011447;28;20290;-16
2022/08/14 05:05:48;;;;;;;10.05;9.05;;;;;;;;;;5011468;28;20716;-16
2022/08/14 05:08:21;;;;;;;10.38;9.38;;;;;;;;;;5011088;28;21058;-16
2022/08/14 05:11:09;;;;;;;11.63;9.20;;;;;;;;;;5006206;28;20239;-15
2022/08/14 05:13:39;;;;;;;10.65;9.18;;;;;;;;;;5006048;28;20239;-16
2022/08/14 05:16:30;;;;;;;11.10;9.82;;;;;;;;;;5010131;28;20243;-16
2022/08/14 05:18:57;;;;;;;12.93;10.02;;;;;;;;;;5010201;28;20243;-16
2022/08/14 05:21:45;;;;;;;10.73;9.63;;;;;;;;;;4997358;28;20242;-16
2022/08/14 05:24:24;;;;;;;14.18;9.15;;;;;;;;;;5011147;28;20362;-16
2022/08/14 05:26:52;;;;;;;19.23;10.50;;;;;;;;;;4997228;28;20239;-16
2022/08/14 05:29:19;;;;;;;17.63;9.63;;;;;;;;;;5009992;28;20319;-16
2022/08/14 05:31:48;;;;;;;14.65;10.18;;;;;;;;;;5011079;28;21008;-16
2022/08/14 05:34:22;;;;;;;11.60;9.93;;;;;;;;;;5010682;28;20235;-16
2022/08/14 05:36:56;;;;;;;13.75;9.27;;;;;;;;;;5005733;28;20664;-16
2022/08/14 05:39:29;;;;;;;14.30;10.27;;;;;;;;;;5010623;28;20238;-16
2022/08/14 05:41:57;;;;;;;13.05;11.15;;;;;;;;;;5010649;28;20732;-16
2022/08/14 05:44:26;;;;;;;16.80;11.98;;;;;;;;;;5011172;28;20232;-16
2022/08/14 05:46:58;;;;;;;13.20;10.70;;;;;;;;;;5010793;28;20687;-16
2022/08/14 05:49:27;;;;;;;10.82;9.70;;;;;;;;;;5011199;28;20227;-16
2022/08/14 05:52:00;;;;;;;12.32;9.57;;;;;;;;;;5010482;28;20976;-16
2022/08/14 05:54:28;;;;;;;13.95;9.98;;;;;;;;;;5010877;28;20265;-16
2022/08/14 05:57:02;;;;;;;17.17;10.10;;;;;;;;;;5010708;28;20231;-16
2022/08/14 05:59:29;;;;;;;13.77;10.75;;;;;;;;;;5010937;28;20765;-16
2022/08/14 06:02:07;;;;;;;11.63;10.43;;;;;;;;;;5009619;28;20657;-16
2022/08/14 06:04:36;;;;;;;11.75;10.57;;;;;;;;;;5010522;28;20263;-16
2022/08/14 06:07:04;;;;;;;11.38;10.18;;;;;;;;;;5010683;28;20236;-16
2022/08/14 06:09:32;;;;;;;10.63;9.60;;;;;;;;;;5010545;28;20286;-16
2022/08/14 06:12:06;;;;;;;12.35;9.88;;;;;;;;;;5010625;28;20227;-16
2022/08/14 06:14:34;;;;;;;10.80;8.75;;;;;;;;;;5010553;28;20231;-16
2022/08/14 06:17:03;;;;;;;11.18;9.13;;;;;;;;;;5010497;28;20295;-16
2022/08/14 06:19:32;;;;;;;10.63;9.48;;;;;;;;;;5010525;28;20224;-16
2022/08/14 06:21:59;;;;;;;12.18;10.13;;;;;;;;;;5010170;28;20294;-16
2022/08/14 06:24:28;;;;;;;10.98;9.85;;;;;;;;;;5009490;28;20234;-16
2022/08/14 06:27:01;;;;;;;11.52;9.65;;;;;;;;;;5009829;28;20235;-16
2022/08/14 06:29:32;;;;;;;13.13;10.00;;;;;;;;;;5010885;28;20286;-16
2022/08/14 06:32:01;;;;;;;11.50;9.73;;;;;;;;;;5010712;28;20254;-16
2022/08/14 06:34:50;;;;;;;13.15;10.30;;;;;;;;;;5011336;28;20242;-16
2022/08/14 06:37:41;;;;;;;11.57;10.45;;;;;;;;;;5005250;28;20232;-16
2022/08/14 06:40:09;;;;;;;12.77;10.50;;;;;;;;;;5009235;28;20624;-16
2022/08/14 06:42:52;;;;;;;13.38;11.07;;;;;;;;;;5004575;28;20278;-16
2022/08/14 06:45:21;;;;;;;17.27;9.77;;;;;;;;;;5008372;28;20235;-16
2022/08/14 06:47:53;;;;;;;11.13;10.02;;;;;;;;;;5005286;28;20236;-16
2022/08/14 06:50:22;;;;;;;12.07;9.98;;;;;;;;;;5007692;28;20241;-16
2022/08/14 06:52:55;;;;;;;11.10;9.98;;;;;;;;;;5007361;28;20234;-16
2022/08/14 06:55:22;;;;;;;14.45;9.95;;;;;;;;;;5007569;28;20708;-16
2022/08/14 06:57:54;;;;;;;10.70;9.70;;;;;;;;;;5007109;28;20259;-16
2022/08/14 07:00:22;;;;;;;10.68;9.70;;;;;;;;;;5011383;28;20245;-16
2022/08/14 07:05:46;;;;;;;14.73;10.35;;;;;;;;;;5006945;28;20231;-16
2022/08/14 07:08:25;;;;;;;12.60;10.82;;;;;;;;;;5006507;28;20360;-16
2022/08/14 07:10:55;;;;;;;12.32;10.55;;;;;;;;;;5005656;28;20235;-16
2022/08/14 07:13:26;;;;;;;13.75;10.20;;;;;;;;;;5011511;28;20695;-16
2022/08/14 07:15:54;;;;;;;13.10;9.68;;;;;;;;;;5007719;28;20235;-16
2022/08/14 07:18:22;;;;;;;18.15;9.90;;;;;;;;;;5009923;28;21075;-16
2022/08/14 07:20:51;;;;;;;10.35;9.27;;;;;;;;;;5007466;28;20624;-16
2022/08/14 07:23:19;;;;;;;11.15;10.05;;;;;;;;;;4994289;28;20236;-16
2022/08/14 07:25:49;;;;;;;13.60;10.35;;;;;;;;;;4994579;28;20246;-16
2022/08/14 07:28:18;;;;;;;11.70;9.95;;;;;;;;;;4995078;28;20232;-16
2022/08/14 07:30:47;;;;;;;10.57;9.57;;;;;;;;;;5012455;28;20809;-16
2022/08/14 07:33:17;;;;;;;12.00;10.27;;;;;;;;;;5007593;28;20774;-16
2022/08/14 07:35:52;;;;;;;16.73;9.90;;;;;;;;;;5008604;28;20339;-16
2022/08/14 07:38:26;;;;;;;11.77;10.52;;;;;;;;;;5007351;28;20492;-16
2022/08/14 07:41:01;;;;;;;18.15;10.00;;;;;;;;;;5001952;28;20236;-16
2022/08/14 07:43:29;;;;;;;11.00;10.00;;;;;;;;;;5008031;28;20235;-16
2022/08/14 07:45:56;;;;;;;10.90;9.80;;;;;;;;;;5008291;28;20238;-16
2022/08/14 07:48:24;;;;;;;12.43;9.77;;;;;;;;;;5010964;28;20228;-16
2022/08/14 07:50:53;;;;;;;12.27;9.77;;;;;;;;;;5008015;28;20242;-15
2022/08/14 07:53:30;;;;;;;10.82;9.70;;;;;;;;;;5003893;28;20278;-15
2022/08/14 07:56:03;;;;;;;12.82;9.75;;;;;;;;;;5010214;28;20247;-16
2022/08/14 07:58:50;;;;;;;12.13;9.75;;;;;;;;;;5007380;28;20239;-16
2022/08/14 08:01:18;;;;;;;11.23;9.95;;;;;;;;;;5011778;28;20236;-16
2022/08/14 08:03:46;;;;;;;10.68;9.57;;;;;;;;;;5007934;28;20270;-16
2022/08/14 08:06:19;;;;;;;10.43;9.43;;;;;;;;;;5007196;28;20298;-16
2022/08/14 08:08:46;;;;;;;15.63;9.20;;;;;;;;;;5001329;28;20235;-15
2022/08/14 08:11:28;;;;;;;13.45;9.70;;;;;;;;;;5012330;28;20350;-16
2022/08/14 08:14:01;;;;;;;10.48;9.35;;;;;;;;;;5002021;28;20729;-17
2022/08/14 08:16:29;;;;;;;13.73;9.32;;;;;;;;;;5007131;28;20720;-17
2022/08/14 08:18:56;;;;;;;10.98;9.75;;;;;;;;;;5012374;28;20797;-17
2022/08/14 08:21:34;;;;;;;9.60;8.68;;;;;;;;;;5011798;28;21020;-17
2022/08/14 08:24:02;;;;;;;10.60;9.50;;;;;;;;;;5009001;28;20773;-17
2022/08/14 08:26:30;;;;;;;11.70;9.20;;;;;;;;;;5010611;28;20258;-17
2022/08/14 08:28:58;;;;;;;9.77;8.77;;;;;;;;;;5011768;28;20234;-17
2022/08/14 08:31:25;;;;;;;9.70;8.80;;;;;;;;;;5011771;28;20243;-17
2022/08/14 08:34:03;;;;;;;11.20;9.05;;;;;;;;;;5011126;28;20321;-16
2022/08/14 08:36:41;;;;;;;11.20;9.20;;;;;;;;;;5011417;28;20321;-17
2022/08/14 08:39:12;;;;;;;10.77;9.68;;;;;;;;;;5008353;28;20255;-16
2022/08/14 08:41:47;;;;;;;9.65;8.75;;;;;;;;;;5011923;28;20238;-16
2022/08/14 08:44:19;;;;;;;9.30;8.40;;;;;;;;;;5011893;28;20261;-16
2022/08/14 08:47:04;;;;;;;8.45;7.70;;;;;;;;;;5011131;28;20235;-16
2022/08/14 08:49:37;;;;;;;9.55;8.60;;;;;;;;;;5011997;28;20322;-17
2022/08/14 08:52:16;;;;;;;9.90;8.88;;;;;;;;;;5011569;28;20239;-17
2022/08/14 08:54:54;;;;;;;10.02;8.98;;;;;;;;;;5011626;28;20240;-16
2022/08/14 08:57:22;;;;;;;9.90;8.90;;;;;;;;;;5011181;28;20228;-16
2022/08/14 08:59:50;;;;;;;9.73;8.65;;;;;;;;;;5011483;28;20227;-17
2022/08/14 09:02:21;;;;;;;8.70;7.90;;;;;;;;;;5011727;28;20278;-17
2022/08/14 09:04:52;;;;;;;9.73;8.82;;;;;;;;;;5007961;28;20323;-16
2022/08/14 09:07:26;;;;;;;9.63;8.32;;;;;;;;;;5000772;28;20282;-16
2022/08/14 09:09:55;;;;;;;9.15;8.25;;;;;;;;;;5011322;28;20705;-16
2022/08/14 09:12:27;;;;;;;9.45;8.45;;;;;;;;;;5011581;28;20239;-16
2022/08/14 09:14:58;;;;;;;9.48;8.52;;;;;;;;;;4997562;28;20237;-16
2022/08/14 09:17:26;;;;;;;8.90;8.00;;;;;;;;;;5002618;28;20987;-16
2022/08/14 09:19:53;;;;;;;9.20;8.30;;;;;;;;;;4994292;28;21047;-16
2022/08/14 09:22:21;;;;;;;10.02;7.97;;;;;;;;;;5003245;28;20338;-17
2022/08/14 09:25:04;;;;;;;9.15;8.23;;;;;;;;;;5006406;28;20235;-17
2022/08/14 09:27:33;;;;;;;8.77;7.97;;;;;;;;;;5011322;28;20266;-16
2022/08/14 09:30:01;;;;;;;8.50;7.70;;;;;;;;;;5010121;28;20691;-16
2022/08/14 09:32:52;;;;;;;9.55;8.52;;;;;;;;;;5001068;28;20231;-16
2022/08/14 09:35:28;;;;;;;10.85;8.32;;;;;;;;;;5011247;28;20318;-16
2022/08/14 09:38:00;;;;;;;9.43;8.23;;;;;;;;;;5011290;28;20318;-16
2022/08/14 09:40:30;;;;;;;8.93;8.13;;;;;;;;;;5011028;28;20231;-16
2022/08/14 09:43:01;;;;;;;10.90;8.05;;;;;;;;;;5011033;28;20326;-16
2022/08/14 09:45:31;;;;;;;9.48;7.63;;;;;;;;;;5011160;28;20227;-17
2022/08/14 09:48:19;;;;;;;8.73;7.93;;;;;;;;;;4998990;28;20878;-17
2022/08/14 09:50:54;;;;;;;8.57;7.88;;;;;;;;;;5010474;28;20231;-17
2022/08/14 09:53:33;;;;;;;8.10;7.30;;;;;;;;;;5010374;28;21059;-16
2022/08/14 09:56:21;;;;;;;8.30;7.60;;;;;;;;;;5010826;28;20231;-17
2022/08/14 09:58:57;;;;;;;9.40;8.23;;;;;;;;;;5000118;28;20239;-16
2022/08/14 10:01:25;;;;;;;40.33;9.75;;;;;;;;;;5008171;28;20888;-16
2022/08/14 10:03:55;;;;;;;16.52;8.40;;;;;;;;;;5008218;28;20248;-16
2022/08/14 10:06:26;;;;;;;17.92;8.27;;;;;;;;;;5006278;28;20232;-16
2022/08/14 10:08:57;;;;;;;13.43;8.48;;;;;;;;;;5007268;28;20235;-18
2022/08/14 10:11:28;;;;;;;21.10;8.10;;;;;;;;;;5011489;28;20239;-16
2022/08/14 10:14:11;;;;;;;10.98;8.00;;;;;;;;;;5009785;28;21076;-15
2022/08/14 10:16:41;;;;;;;9.95;7.95;;;;;;;;;;5010013;28;20230;-15
2022/08/14 10:19:09;;;;;;;11.88;7.88;;;;;;;;;;5010719;28;20246;-17
2022/08/14 10:21:36;;;;;;;9.05;8.18;;;;;;;;;;5010636;28;20254;-15
2022/08/14 10:24:24;;;;;;;8.13;7.43;;;;;;;;;;5013359;28;20343;-17
2022/08/14 10:27:05;;;;;;;8.88;8.07;;;;;;;;;;5003040;28;20242;-17
2022/08/14 10:29:33;;;;;;;8.30;7.45;;;;;;;;;;5002967;28;20235;-16
2022/08/14 10:32:02;;;;;;;8.35;7.55;;;;;;;;;;5004756;28;20232;-17
2022/08/14 10:34:44;;;;;;;9.68;7.88;;;;;;;;;;5002759;28;20318;-17
2022/08/14 10:37:12;;;;;;;8.68;7.28;;;;;;;;;;5008831;28;20231;-15
2022/08/14 10:39:41;;;;;;;8.60;7.80;;;;;;;;;;5011384;28;20236;-17
2022/08/14 10:42:19;;;;;;;9.50;7.20;;;;;;;;;;5021292;28;20301;-17
2022/08/14 10:44:48;;;;;;;8.57;7.10;;;;;;;;;;5008859;28;20238;-15
2022/08/14 10:47:19;;;;;;;10.63;7.90;;;;;;;;;;5015045;28;20285;-18
2022/08/14 10:50:08;;;;;;;8.68;7.78;;;;;;;;;;5006976;28;20231;-16
2022/08/14 10:52:41;;;;;;;7.60;6.90;;;;;;;;;;5008981;28;20351;-15
2022/08/14 10:55:12;;;;;;;7.68;7.07;;;;;;;;;;5014327;28;20239;-16
2022/08/14 10:57:49;;;;;;;7.65;6.95;;;;;;;;;;5012091;28;20239;-15
2022/08/14 11:00:18;;;;;;;8.35;7.53;;;;;;;;;;5016158;28;20238;-16
2022/08/14 11:02:57;;;;;;;8.52;7.72;;;;;;;;;;5008744;28;20701;-15
2022/08/14 11:05:26;;;;;;;8.25;7.50;;;;;;;;;;5012222;28;20263;-15
2022/08/14 11:07:55;;;;;;;9.38;7.80;;;;;;;;;;5008444;28;20236;-17
2022/08/14 11:10:26;;;;;;;7.68;6.95;;;;;;;;;;5010773;28;20236;-15
2022/08/14 11:12:56;;;;;;;14.43;7.45;;;;;;;;;;5005037;28;20354;-17
2022/08/14 11:15:24;;;;;;;8.30;7.50;;;;;;;;;;5003396;28;20239;-17
2022/08/14 11:17:51;;;;;;;9.63;7.03;;;;;;;;;;5011170;28;20236;-16
2022/08/14 11:20:19;;;;;;;9.70;7.65;;;;;;;;;;5011802;28;20714;-17
2022/08/14 11:22:51;;;;;;;10.75;7.05;;;;;;;;;;5011851;28;20284;-17
2022/08/14 11:25:26;;;;;;;8.10;7.28;;;;;;;;;;5009724;28;20242;-17
2022/08/14 11:28:11;;;;;;;10.90;7.13;;;;;;;;;;5011829;28;20978;-17
2022/08/14 11:30:45;;;;;;;7.82;7.00;;;;;;;;;;5015550;28;20235;-17
2022/08/14 11:33:21;;;;;;;7.45;6.20;;;;;;;;;;5008029;28;20232;-18
2022/08/14 11:35:49;;;;;;;8.77;7.25;;;;;;;;;;5014688;28;20984;-17
2022/08/14 11:38:16;;;;;;;8.27;7.13;;;;;;;;;;5010703;28;20243;-18
2022/08/14 11:40:44;;;;;;;8.48;6.80;;;;;;;;;;5010803;28;20240;-17
2022/08/14 11:43:15;;;;;;;9.93;7.15;;;;;;;;;;5015292;28;20334;-17
2022/08/14 11:45:44;;;;;;;11.38;6.97;;;;;;;;;;5007709;28;20238;-17
2022/08/14 11:48:15;;;;;;;7.13;6.35;;;;;;;;;;5008090;28;20241;-17
2022/08/14 11:51:02;;;;;;;7.10;6.40;;;;;;;;;;5014628;28;20237;-17
2022/08/14 11:53:30;;;;;;;7.35;6.53;;;;;;;;;;5010889;28;20235;-17
2022/08/14 11:55:58;;;;;;;7.55;6.38;;;;;;;;;;5017058;28;20242;-17
2022/08/14 11:58:27;;;;;;;7.40;6.28;;;;;;;;;;5009262;28;20242;-17
2022/08/14 12:00:57;;;;;;;7.53;6.40;;;;;;;;;;5011461;28;20239;-17
2022/08/14 12:03:34;;;;;;;8.50;6.53;;;;;;;;;;5008411;28;20247;-18
2022/08/14 12:06:18;;;;;;;11.38;6.07;;;;;;;;;;5005222;28;20231;-17
2022/08/14 12:09:04;;;;;;;11.02;6.13;;;;;;;;;;5014240;28;20238;-15
2022/08/14 12:11:41;;;;;;;7.10;6.05;;;;;;;;;;5014188;28;20761;-17
2022/08/14 12:14:16;;;;;;;7.15;6.28;;;;;;;;;;5012681;28;20235;-17
2022/08/14 12:17:02;;;;;;;6.88;6.28;;;;;;;;;;5006896;28;20366;-17
2022/08/14 12:19:31;;;;;;;6.47;5.88;;;;;;;;;;5009692;28;20235;-17
2022/08/14 12:22:01;;;;;;;7.10;6.43;;;;;;;;;;5011202;28;20247;-17
2022/08/14 12:24:29;;;;;;;6.65;6.05;;;;;;;;;;5002749;28;20247;-17
2022/08/14 12:27:03;;;;;;;8.85;6.13;;;;;;;;;;5006180;28;20237;-17
2022/08/14 12:29:31;;;;;;;7.82;6.00;;;;;;;;;;5018315;28;20242;-17
2022/08/14 12:32:03;;;;;;;6.90;6.20;;;;;;;;;;5004978;28;20330;-17
2022/08/14 12:34:31;;;;;;;8.05;5.93;;;;;;;;;;5008388;28;20232;-17
2022/08/14 12:37:04;;;;;;;6.97;6.38;;;;;;;;;;5010091;28;20238;-17
2022/08/14 12:39:31;;;;;;;6.93;6.32;;;;;;;;;;5009477;28;20346;-16
2022/08/14 12:42:06;;;;;;;7.20;6.10;;;;;;;;;;5009859;28;20262;-17
2022/08/14 12:44:36;;;;;;;7.45;6.32;;;;;;;;;;5015234;28;20239;-17
2022/08/14 12:47:04;;;;;;;7.20;6.22;;;;;;;;;;5013552;28;20237;-16
2022/08/14 12:49:32;;;;;;;6.55;5.78;;;;;;;;;;5010202;28;20240;-16
2022/08/14 12:52:00;;;;;;;9.05;6.25;;;;;;;;;;5009726;28;20231;-16
2022/08/14 12:54:28;;;;;;;9.38;6.57;;;;;;;;;;5007632;28;20234;-16
2022/08/14 12:57:05;;;;;;;9.07;6.25;;;;;;;;;;5010748;28;20289;-17
2022/08/14 12:59:33;;;;;;;7.10;6.40;;;;;;;;;;5016974;28;20230;-17
2022/08/14 13:02:14;;;;;;;6.70;6.10;;;;;;;;;;5002960;28;20235;-16
2022/08/14 13:04:41;;;;;;;6.63;6.03;;;;;;;;;;5008935;28;20247;-16
2022/08/14 13:07:09;;;;;;;8.07;5.97;;;;;;;;;;5016781;28;20624;-16
2022/08/14 13:09:36;;;;;;;7.05;6.43;;;;;;;;;;5008161;28;20241;-16
2022/08/14 13:12:07;;;;;;;7.00;6.40;;;;;;;;;;5016236;28;20239;-17
2022/08/14 13:14:56;;;;;;;7.28;6.68;;;;;;;;;;5015212;28;21149;-16
2022/08/14 13:17:25;;;;;;;8.75;6.20;;;;;;;;;;5008752;28;21020;-17
2022/08/14 13:19:55;;;;;;;7.10;6.40;;;;;;;;;;5014267;28;20601;-16
2022/08/14 13:22:25;;;;;;;7.28;6.30;;;;;;;;;;5019381;28;20242;-18
2022/08/14 13:25:05;;;;;;;6.60;6.00;;;;;;;;;;5013920;28;20258;-17
2022/08/14 13:27:32;;;;;;;11.05;6.10;;;;;;;;;;5015818;28;20239;-17
2022/08/14 13:30:06;;;;;;;7.30;6.57;;;;;;;;;;5004440;28;20242;-16
2022/08/14 13:32:39;;;;;;;7.18;6.57;;;;;;;;;;5011724;28;20326;-16
2022/08/14 13:35:07;;;;;;;7.97;6.53;;;;;;;;;;5009002;28;20231;-17
2022/08/14 13:37:42;;;;;;;6.90;6.30;;;;;;;;;;5016720;28;20236;-16
2022/08/14 13:40:11;;;;;;;6.90;6.30;;;;;;;;;;5006261;28;20270;-16
2022/08/14 13:42:41;;;;;;;6.30;5.68;;;;;;;;;;5007061;28;20255;-16
2022/08/14 13:45:10;;;;;;;6.78;5.80;;;;;;;;;;5005720;28;20515;-17
2022/08/14 13:47:40;;;;;;;9.57;5.80;;;;;;;;;;5005838;28;21070;-16
2022/08/14 13:50:14;;;;;;;7.88;6.20;;;;;;;;;;5003615;28;20231;-16
2022/08/14 13:52:52;;;;;;;7.43;5.57;;;;;;;;;;5006705;28;20698;-16
2022/08/14 13:55:22;;;;;;;6.63;6.00;;;;;;;;;;5011351;28;20230;-16
2022/08/14 13:57:49;;;;;;;7.75;5.50;;;;;;;;;;5011413;28;20706;-16
2022/08/14 14:00:31;;;;;;;6.20;5.60;;;;;;;;;;5008299;28;20385;-16
2022/08/14 14:03:19;;;;;;;8.00;5.88;;;;;;;;;;5005243;28;20235;-17
2022/08/14 14:05:49;;;;;;;6.03;5.50;;;;;;;;;;5006585;28;20366;-17
2022/08/14 14:08:20;;;;;;;7.25;5.93;;;;;;;;;;5004976;28;20243;-17
2022/08/14 14:11:08;;;;;;;8.18;6.20;;;;;;;;;;5005362;28;20260;-17
2022/08/14 14:13:36;;;;;;;6.25;5.72;;;;;;;;;;5014809;28;20243;-17
2022/08/14 14:16:08;;;;;;;6.78;5.75;;;;;;;;;;5004146;28;20707;-17
2022/08/14 14:18:38;;;;;;;6.85;5.63;;;;;;;;;;5013494;28;20239;-16
2022/08/14 14:21:09;;;;;;;9.82;5.78;;;;;;;;;;5011125;28;20235;-17
2022/08/14 14:23:37;;;;;;;13.73;6.10;;;;;;;;;;5009799;28;20239;-16
2022/08/14 14:26:05;;;;;;;7.13;5.68;;;;;;;;;;5014051;28;20245;-17
2022/08/14 14:28:32;;;;;;;9.70;6.25;;;;;;;;;;5008596;28;21042;-17
2022/08/14 14:31:01;;;;;;;8.45;5.82;;;;;;;;;;5010771;28;20234;-17
2022/08/14 14:33:33;;;;;;;13.13;5.85;;;;;;;;;;5008331;28;20267;-16
2022/08/14 14:36:19;;;;;;;11.27;5.88;;;;;;;;;;5009387;28;20236;-16
2022/08/14 14:38:48;;;;;;;6.78;6.07;;;;;;;;;;5004516;28;20247;-16
2022/08/14 14:41:19;;;;;;;11.23;5.63;;;;;;;;;;5000592;28;20326;-16
2022/08/14 14:43:48;;;;;;;13.98;6.22;;;;;;;;;;5007671;28;20254;-17
2022/08/14 14:46:18;;;;;;;10.20;5.97;;;;;;;;;;5006864;28;20275;-16
2022/08/14 14:48:45;;;;;;;11.27;5.90;;;;;;;;;;5007613;28;20240;-15
2022/08/14 14:51:22;;;;;;;6.55;5.95;;;;;;;;;;5003280;28;20232;-16
2022/08/14 14:53:51;;;;;;;6.78;5.72;;;;;;;;;;5008180;28;20695;-16
2022/08/14 14:56:19;;;;;;;11.00;5.35;;;;;;;;;;5012295;28;20240;-17
2022/08/14 14:59:06;;;;;;;6.28;5.32;;;;;;;;;;5007797;28;21000;-16
2022/08/14 15:01:36;;;;;;;5.40;4.90;;;;;;;;;;5012755;28;20231;-15
2022/08/14 15:04:08;;;;;;;7.50;5.47;;;;;;;;;;5008221;28;20238;-16
2022/08/14 15:06:48;;;;;;;6.40;5.78;;;;;;;;;;5010158;28;20236;-16
2022/08/14 15:09:16;;;;;;;5.90;5.25;;;;;;;;;;5008794;28;20321;-17
2022/08/14 15:11:46;;;;;;;5.60;5.10;;;;;;;;;;5009011;28;20263;-17
2022/08/14 15:14:14;;;;;;;7.45;5.40;;;;;;;;;;5006166;28;20637;-16
2022/08/14 15:17:02;;;;;;;5.65;5.15;;;;;;;;;;5015336;28;20366;-17
2022/08/14 15:19:30;;;;;;;8.48;6.10;;;;;;;;;;5004324;28;20722;-17
2022/08/14 15:21:59;;;;;;;7.30;5.28;;;;;;;;;;5004364;28;21169;-17
2022/08/14 15:24:27;;;;;;;7.20;5.63;;;;;;;;;;5009510;28;20298;-17
2022/08/14 15:26:55;;;;;;;5.80;5.30;;;;;;;;;;5007016;28;20243;-16
2022/08/14 15:29:24;;;;;;;5.90;5.30;;;;;;;;;;5003680;28;20286;-17